sensor_id;sensor_type;location;lat;lon;timestamp;P1;durP1;ratioP1;P2;durP2;ratioP2
17890;SDS011;9071;48.220;14.480;2024-03-29T00:04:04;18.67;;;12.97;;
17890;SDS011;9071;48.220;14.480;2024-03-29T00:09:05;16.63;;;12.27;;
17890;SDS011;9071;48.220;14.480;2024-03-29T00:14:06;19.37;;;13.13;;
17890;SDS011;9071;48.220;14.480;2024-03-29T00:19:09;20.67;;;13.57;;
17890;SDS011;9071;48.220;14.480;2024-03-29T00:24:10;19.20;;;12.07;;
17890;SDS011;9071;48.220;14.480;2024-03-29T00:29:11;38.63;;;14.07;;
17890;SDS011;9071;48.220;14.480;2024-03-29T00:34:13;24.27;;;12.97;;
17890;SDS011;9071;48.220;14.480;2024-03-29T00:39:14;26.43;;;13.53;;
17890;SDS011;9071;48.220;14.480;2024-03-29T00:44:15;25.17;;;13.27;;
17890;SDS011;9071;48.220;14.480;2024-03-29T00:49:18;24.97;;;12.93;;
17890;SDS011;9071;48.220;14.480;2024-03-29T00:54:19;18.43;;;11.40;;
17890;SDS011;9071;48.220;14.480;2024-03-29T00:59:20;21.93;;;12.00;;
17890;SDS011;9071;48.220;14.480;2024-03-29T01:04:23;20.63;;;12.60;;
17890;SDS011;9071;48.220;14.480;2024-03-29T01:09:24;23.47;;;12.50;;
17890;SDS011;9071;48.220;14.480;2024-03-29T01:14:26;24.43;;;13.73;;
17890;SDS011;9071;48.220;14.480;2024-03-29T01:19:28;20.27;;;11.50;;
17890;SDS011;9071;48.220;14.480;2024-03-29T01:24:29;20.83;;;12.33;;
17890;SDS011;9071;48.220;14.480;2024-03-29T01:29:31;22.13;;;11.70;;
17890;SDS011;9071;48.220;14.480;2024-03-29T01:34:33;21.07;;;11.43;;
17890;SDS011;9071;48.220;14.480;2024-03-29T01:39:34;18.43;;;11.43;;
17890;SDS011;9071;48.220;14.480;2024-03-29T01:44:35;21.73;;;11.37;;
17890;SDS011;9071;48.220;14.480;2024-03-29T01:49:40;18.97;;;11.03;;
17890;SDS011;9071;48.220;14.480;2024-03-29T01:54:42;18.33;;;11.40;;
17890;SDS011;9071;48.220;14.480;2024-03-29T01:59:45;23.60;;;12.60;;
17890;SDS011;9071;48.220;14.480;2024-03-29T02:04:49;23.60;;;13.07;;
17890;SDS011;9071;48.220;14.480;2024-03-29T02:09:52;29.20;;;11.83;;
17890;SDS011;9071;48.220;14.480;2024-03-29T02:14:54;41.77;;;15.33;;
17890;SDS011;9071;48.220;14.480;2024-03-29T02:19:59;19.50;;;11.97;;
17890;SDS011;9071;48.220;14.480;2024-03-29T02:25:03;16.27;;;9.50;;
17890;SDS011;9071;48.220;14.480;2024-03-29T02:30:07;13.90;;;8.73;;
17890;SDS011;9071;48.220;14.480;2024-03-29T02:35:09;12.40;;;8.00;;
17890;SDS011;9071;48.220;14.480;2024-03-29T02:40:13;15.77;;;9.30;;
17890;SDS011;9071;48.220;14.480;2024-03-29T02:45:15;15.87;;;9.73;;
17890;SDS011;9071;48.220;14.480;2024-03-29T02:50:17;15.63;;;10.13;;
17890;SDS011;9071;48.220;14.480;2024-03-29T02:55:21;18.03;;;10.23;;
17890;SDS011;9071;48.220;14.480;2024-03-29T03:00:23;16.57;;;9.93;;
17890;SDS011;9071;48.220;14.480;2024-03-29T03:05:25;17.30;;;10.13;;
17890;SDS011;9071;48.220;14.480;2024-03-29T03:10:28;17.13;;;9.87;;
17890;SDS011;9071;48.220;14.480;2024-03-29T03:15:48;16.70;;;10.43;;
17890;SDS011;9071;48.220;14.480;2024-03-29T03:20:50;15.70;;;10.20;;
17890;SDS011;9071;48.220;14.480;2024-03-29T03:25:57;30.97;;;13.37;;
17890;SDS011;9071;48.220;14.480;2024-03-29T03:31:00;79.97;;;15.40;;
17890;SDS011;9071;48.220;14.480;2024-03-29T03:36:02;38.93;;;17.27;;
17890;SDS011;9071;48.220;14.480;2024-03-29T03:41:06;32.07;;;16.97;;
17890;SDS011;9071;48.220;14.480;2024-03-29T03:46:08;29.20;;;15.53;;
17890;SDS011;9071;48.220;14.480;2024-03-29T03:51:10;27.80;;;15.10;;
17890;SDS011;9071;48.220;14.480;2024-03-29T03:56:13;23.67;;;13.00;;
17890;SDS011;9071;48.220;14.480;2024-03-29T04:01:16;24.53;;;12.47;;
17890;SDS011;9071;48.220;14.480;2024-03-29T04:06:18;21.27;;;11.50;;
17890;SDS011;9071;48.220;14.480;2024-03-29T04:11:21;20.77;;;10.83;;
17890;SDS011;9071;48.220;14.480;2024-03-29T04:16:23;19.37;;;10.60;;
17890;SDS011;9071;48.220;14.480;2024-03-29T04:21:25;17.97;;;9.90;;
17890;SDS011;9071;48.220;14.480;2024-03-29T04:26:29;13.23;;;8.80;;
17890;SDS011;9071;48.220;14.480;2024-03-29T04:31:31;15.60;;;9.23;;
17890;SDS011;9071;48.220;14.480;2024-03-29T04:36:33;14.50;;;8.67;;
17890;SDS011;9071;48.220;14.480;2024-03-29T04:41:36;12.37;;;8.10;;
17890;SDS011;9071;48.220;14.480;2024-03-29T04:46:38;12.37;;;7.50;;
17890;SDS011;9071;48.220;14.480;2024-03-29T04:51:41;10.70;;;7.40;;
17890;SDS011;9071;48.220;14.480;2024-03-29T04:56:44;13.17;;;8.30;;
17890;SDS011;9071;48.220;14.480;2024-03-29T05:01:46;16.13;;;9.47;;
17890;SDS011;9071;48.220;14.480;2024-03-29T05:06:50;17.20;;;11.03;;
17890;SDS011;9071;48.220;14.480;2024-03-29T05:11:55;14.03;;;9.10;;
17890;SDS011;9071;48.220;14.480;2024-03-29T05:16:57;12.10;;;8.37;;
17890;SDS011;9071;48.220;14.480;2024-03-29T05:21:59;16.60;;;11.83;;
17890;SDS011;9071;48.220;14.480;2024-03-29T05:27:02;18.57;;;10.17;;
17890;SDS011;9071;48.220;14.480;2024-03-29T05:32:05;11.57;;;8.13;;
17890;SDS011;9071;48.220;14.480;2024-03-29T05:37:08;10.63;;;7.03;;
17890;SDS011;9071;48.220;14.480;2024-03-29T05:42:11;7.77;;;6.90;;
17890;SDS011;9071;48.220;14.480;2024-03-29T05:47:13;6.03;;;4.60;;
17890;SDS011;9071;48.220;14.480;2024-03-29T05:52:15;4.13;;;3.00;;
17890;SDS011;9071;48.220;14.480;2024-03-29T05:57:19;2.17;;;1.97;;
17890;SDS011;9071;48.220;14.480;2024-03-29T06:02:25;3.20;;;1.30;;
17890;SDS011;9071;48.220;14.480;2024-03-29T06:07:27;2.20;;;1.40;;
17890;SDS011;9071;48.220;14.480;2024-03-29T06:12:31;2.00;;;1.00;;
17890;SDS011;9071;48.220;14.480;2024-03-29T06:17:34;4.73;;;1.00;;
17890;SDS011;9071;48.220;14.480;2024-03-29T06:22:37;1.00;;;0.80;;
17890;SDS011;9071;48.220;14.480;2024-03-29T06:27:41;1.63;;;0.60;;
17890;SDS011;9071;48.220;14.480;2024-03-29T06:32:47;1.90;;;0.90;;
17890;SDS011;9071;48.220;14.480;2024-03-29T06:37:50;2.30;;;0.80;;
17890;SDS011;9071;48.220;14.480;2024-03-29T06:42:53;1.03;;;0.80;;
17890;SDS011;9071;48.220;14.480;2024-03-29T06:47:56;1.80;;;0.90;;
17890;SDS011;9071;48.220;14.480;2024-03-29T06:52:58;1.97;;;1.03;;
17890;SDS011;9071;48.220;14.480;2024-03-29T06:58:02;1.27;;;0.87;;
17890;SDS011;9071;48.220;14.480;2024-03-29T07:03:04;1.97;;;0.97;;
17890;SDS011;9071;48.220;14.480;2024-03-29T07:08:06;1.30;;;0.90;;
17890;SDS011;9071;48.220;14.480;2024-03-29T07:13:09;1.47;;;0.77;;
17890;SDS011;9071;48.220;14.480;2024-03-29T07:18:12;3.70;;;0.97;;
17890;SDS011;9071;48.220;14.480;2024-03-29T07:23:15;1.20;;;0.80;;
17890;SDS011;9071;48.220;14.480;2024-03-29T07:28:18;0.70;;;0.63;;
17890;SDS011;9071;48.220;14.480;2024-03-29T07:33:20;1.90;;;0.80;;
17890;SDS011;9071;48.220;14.480;2024-03-29T07:38:26;1.60;;;0.80;;
17890;SDS011;9071;48.220;14.480;2024-03-29T07:43:34;0.50;;;0.50;;
17890;SDS011;9071;48.220;14.480;2024-03-29T07:48:40;4.90;;;1.00;;
17890;SDS011;9071;48.220;14.480;2024-03-29T07:53:42;2.03;;;0.70;;
17890;SDS011;9071;48.220;14.480;2024-03-29T07:58:45;0.85;;;0.70;;
17890;SDS011;9071;48.220;14.480;2024-03-29T08:03:47;1.55;;;0.80;;
17890;SDS011;9071;48.220;14.480;2024-03-29T08:08:53;1.23;;;0.60;;
17890;SDS011;9071;48.220;14.480;2024-03-29T08:13:59;3.70;;;0.68;;
17890;SDS011;9071;48.220;14.480;2024-03-29T08:19:01;1.20;;;0.70;;
17890;SDS011;9071;48.220;14.480;2024-03-29T08:24:03;1.30;;;0.70;;
17890;SDS011;9071;48.220;14.480;2024-03-29T08:29:07;1.08;;;0.50;;
17890;SDS011;9071;48.220;14.480;2024-03-29T08:34:09;0.93;;;0.63;;
17890;SDS011;9071;48.220;14.480;2024-03-29T08:39:13;2.30;;;0.60;;
17890;SDS011;9071;48.220;14.480;2024-03-29T08:44:18;1.27;;;0.60;;
17890;SDS011;9071;48.220;14.480;2024-03-29T08:49:20;2.30;;;0.68;;
17890;SDS011;9071;48.220;14.480;2024-03-29T08:54:22;0.50;;;0.50;;
17890;SDS011;9071;48.220;14.480;2024-03-29T08:59:26;2.33;;;0.65;;
17890;SDS011;9071;48.220;14.480;2024-03-29T09:04:29;0.40;;;0.38;;
17890;SDS011;9071;48.220;14.480;2024-03-29T09:09:31;0.30;;;0.30;;
17890;SDS011;9071;48.220;14.480;2024-03-29T09:14:35;0.45;;;0.40;;
17890;SDS011;9071;48.220;14.480;2024-03-29T09:19:37;0.55;;;0.55;;
17890;SDS011;9071;48.220;14.480;2024-03-29T09:24:39;1.25;;;0.50;;
17890;SDS011;9071;48.220;14.480;2024-03-29T09:29:43;0.43;;;0.43;;
17890;SDS011;9071;48.220;14.480;2024-03-29T09:34:48;0.52;;;0.50;;
17890;SDS011;9071;48.220;14.480;2024-03-29T09:39:51;0.50;;;0.50;;
17890;SDS011;9071;48.220;14.480;2024-03-29T09:44:55;0.82;;;0.40;;
17890;SDS011;9071;48.220;14.480;2024-03-29T09:49:58;1.73;;;0.47;;
17890;SDS011;9071;48.220;14.480;2024-03-29T09:55:03;0.65;;;0.50;;
17890;SDS011;9071;48.220;14.480;2024-03-29T10:00:09;0.57;;;0.47;;
17890;SDS011;9071;48.220;14.480;2024-03-29T10:05:12;1.23;;;0.60;;
17890;SDS011;9071;48.220;14.480;2024-03-29T10:10:16;0.77;;;0.50;;
17890;SDS011;9071;48.220;14.480;2024-03-29T10:15:19;2.10;;;0.70;;
17890;SDS011;9071;48.220;14.480;2024-03-29T10:20:24;1.63;;;0.55;;
17890;SDS011;9071;48.220;14.480;2024-03-29T10:25:27;1.13;;;0.40;;
17890;SDS011;9071;48.220;14.480;2024-03-29T10:30:34;0.50;;;0.45;;
17890;SDS011;9071;48.220;14.480;2024-03-29T10:35:36;1.65;;;0.57;;
17890;SDS011;9071;48.220;14.480;2024-03-29T10:40:38;1.23;;;0.65;;
17890;SDS011;9071;48.220;14.480;2024-03-29T10:45:42;1.20;;;0.50;;
17890;SDS011;9071;48.220;14.480;2024-03-29T10:50:45;0.50;;;0.45;;
17890;SDS011;9071;48.220;14.480;2024-03-29T10:55:52;1.77;;;1.00;;
17890;SDS011;9071;48.220;14.480;2024-03-29T11:00:57;1.85;;;0.70;;
17890;SDS011;9071;48.220;14.480;2024-03-29T11:06:02;0.50;;;0.50;;
17890;SDS011;9071;48.220;14.480;2024-03-29T11:11:05;1.27;;;0.60;;
17890;SDS011;9071;48.220;14.480;2024-03-29T11:16:11;0.90;;;0.60;;
17890;SDS011;9071;48.220;14.480;2024-03-29T11:21:14;0.63;;;0.43;;
17890;SDS011;9071;48.220;14.480;2024-03-29T11:26:18;1.13;;;0.60;;
17890;SDS011;9071;48.220;14.480;2024-03-29T11:31:23;0.70;;;0.50;;
17890;SDS011;9071;48.220;14.480;2024-03-29T11:36:28;2.53;;;0.52;;
17890;SDS011;9071;48.220;14.480;2024-03-29T11:41:31;1.35;;;0.60;;
17890;SDS011;9071;48.220;14.480;2024-03-29T11:46:35;1.08;;;0.50;;
17890;SDS011;9071;48.220;14.480;2024-03-29T11:51:40;3.63;;;1.10;;
17890;SDS011;9071;48.220;14.480;2024-03-29T11:56:43;1.75;;;0.73;;
17890;SDS011;9071;48.220;14.480;2024-03-29T12:01:46;0.60;;;0.50;;
17890;SDS011;9071;48.220;14.480;2024-03-29T12:06:49;0.88;;;0.57;;
17890;SDS011;9071;48.220;14.480;2024-03-29T12:11:51;1.60;;;0.80;;
17890;SDS011;9071;48.220;14.480;2024-03-29T12:16:55;0.63;;;0.60;;
17890;SDS011;9071;48.220;14.480;2024-03-29T12:21:57;0.77;;;0.52;;
17890;SDS011;9071;48.220;14.480;2024-03-29T12:26:59;0.93;;;0.57;;
17890;SDS011;9071;48.220;14.480;2024-03-29T12:32:02;0.60;;;0.60;;
17890;SDS011;9071;48.220;14.480;2024-03-29T12:37:06;1.42;;;0.60;;
17890;SDS011;9071;48.220;14.480;2024-03-29T12:42:10;1.45;;;0.70;;
17890;SDS011;9071;48.220;14.480;2024-03-29T12:47:14;2.92;;;0.70;;
17890;SDS011;9071;48.220;14.480;2024-03-29T12:52:16;2.55;;;0.73;;
17890;SDS011;9071;48.220;14.480;2024-03-29T12:57:18;0.80;;;0.60;;
17890;SDS011;9071;48.220;14.480;2024-03-29T13:02:22;1.25;;;0.60;;
17890;SDS011;9071;48.220;14.480;2024-03-29T13:07:24;1.83;;;0.70;;
17890;SDS011;9071;48.220;14.480;2024-03-29T13:12:26;2.55;;;1.00;;
17890;SDS011;9071;48.220;14.480;2024-03-29T13:17:29;1.00;;;0.50;;
17890;SDS011;9071;48.220;14.480;2024-03-29T13:22:31;2.53;;;0.60;;
17890;SDS011;9071;48.220;14.480;2024-03-29T13:27:33;3.33;;;0.70;;
17890;SDS011;9071;48.220;14.480;2024-03-29T13:32:39;1.42;;;0.70;;
17890;SDS011;9071;48.220;14.480;2024-03-29T13:37:42;9.77;;;0.85;;
17890;SDS011;9071;48.220;14.480;2024-03-29T13:42:46;0.47;;;0.47;;
17890;SDS011;9071;48.220;14.480;2024-03-29T13:47:50;2.30;;;0.70;;
17890;SDS011;9071;48.220;14.480;2024-03-29T13:52:52;3.40;;;0.80;;
17890;SDS011;9071;48.220;14.480;2024-03-29T13:57:55;2.08;;;0.60;;
17890;SDS011;9071;48.220;14.480;2024-03-29T14:02:58;1.20;;;0.68;;
17890;SDS011;9071;48.220;14.480;2024-03-29T14:08:00;1.13;;;0.80;;
17890;SDS011;9071;48.220;14.480;2024-03-29T14:13:02;1.38;;;0.60;;
17890;SDS011;9071;48.220;14.480;2024-03-29T14:18:06;0.95;;;0.60;;
17890;SDS011;9071;48.220;14.480;2024-03-29T14:23:08;0.82;;;0.60;;
17890;SDS011;9071;48.220;14.480;2024-03-29T14:28:10;0.60;;;0.60;;
17890;SDS011;9071;48.220;14.480;2024-03-29T14:33:14;1.38;;;0.60;;
17890;SDS011;9071;48.220;14.480;2024-03-29T14:38:16;1.13;;;0.60;;
17890;SDS011;9071;48.220;14.480;2024-03-29T14:43:18;3.30;;;0.50;;
17890;SDS011;9071;48.220;14.480;2024-03-29T14:48:21;1.38;;;0.65;;
17890;SDS011;9071;48.220;14.480;2024-03-29T14:53:25;1.20;;;0.90;;
17890;SDS011;9071;48.220;14.480;2024-03-29T14:58:27;1.30;;;0.70;;
17890;SDS011;9071;48.220;14.480;2024-03-29T15:03:30;2.42;;;0.60;;
17890;SDS011;9071;48.220;14.480;2024-03-29T15:08:32;0.90;;;0.50;;
17890;SDS011;9071;48.220;14.480;2024-03-29T15:13:34;1.10;;;0.80;;
17890;SDS011;9071;48.220;14.480;2024-03-29T15:18:37;1.55;;;1.00;;
17890;SDS011;9071;48.220;14.480;2024-03-29T15:23:40;2.58;;;0.90;;
17890;SDS011;9071;48.220;14.480;2024-03-29T15:28:42;0.70;;;0.70;;
17890;SDS011;9071;48.220;14.480;2024-03-29T15:34:02;0.98;;;0.60;;
17890;SDS011;9071;48.220;14.480;2024-03-29T15:39:05;1.45;;;0.60;;
17890;SDS011;9071;48.220;14.480;2024-03-29T15:44:08;1.00;;;0.50;;
17890;SDS011;9071;48.220;14.480;2024-03-29T15:49:11;0.93;;;0.50;;
17890;SDS011;9071;48.220;14.480;2024-03-29T15:54:13;1.20;;;0.60;;
17890;SDS011;9071;48.220;14.480;2024-03-29T15:59:16;1.20;;;0.60;;
17890;SDS011;9071;48.220;14.480;2024-03-29T16:04:20;1.35;;;0.60;;
17890;SDS011;9071;48.220;14.480;2024-03-29T16:09:22;1.05;;;0.85;;
17890;SDS011;9071;48.220;14.480;2024-03-29T16:14:26;1.73;;;0.60;;
17890;SDS011;9071;48.220;14.480;2024-03-29T16:19:31;1.05;;;0.80;;
17890;SDS011;9071;48.220;14.480;2024-03-29T16:24:33;1.88;;;1.27;;
17890;SDS011;9071;48.220;14.480;2024-03-29T16:29:35;2.00;;;0.90;;
17890;SDS011;9071;48.220;14.480;2024-03-29T16:34:39;2.03;;;0.90;;
17890;SDS011;9071;48.220;14.480;2024-03-29T16:39:44;2.83;;;1.05;;
17890;SDS011;9071;48.220;14.480;2024-03-29T16:44:47;1.15;;;0.80;;
17890;SDS011;9071;48.220;14.480;2024-03-29T16:49:50;1.35;;;0.68;;
17890;SDS011;9071;48.220;14.480;2024-03-29T16:54:52;0.82;;;0.70;;
17890;SDS011;9071;48.220;14.480;2024-03-29T16:59:55;0.93;;;0.60;;
17890;SDS011;9071;48.220;14.480;2024-03-29T17:04:58;1.23;;;0.90;;
17890;SDS011;9071;48.220;14.480;2024-03-29T17:10:01;2.00;;;1.40;;
17890;SDS011;9071;48.220;14.480;2024-03-29T17:15:04;2.75;;;1.83;;
17890;SDS011;9071;48.220;14.480;2024-03-29T17:20:09;4.03;;;2.28;;
17890;SDS011;9071;48.220;14.480;2024-03-29T17:25:11;5.07;;;3.13;;
17890;SDS011;9071;48.220;14.480;2024-03-29T17:30:13;3.63;;;2.92;;
17890;SDS011;9071;48.220;14.480;2024-03-29T17:35:17;3.70;;;3.30;;
17890;SDS011;9071;48.220;14.480;2024-03-29T17:40:19;4.03;;;2.90;;
17890;SDS011;9071;48.220;14.480;2024-03-29T17:45:21;5.15;;;3.17;;
17890;SDS011;9071;48.220;14.480;2024-03-29T17:50:24;4.75;;;1.67;;
17890;SDS011;9071;48.220;14.480;2024-03-29T17:55:27;4.45;;;1.85;;
17890;SDS011;9071;48.220;14.480;2024-03-29T18:00:31;3.92;;;2.17;;
17890;SDS011;9071;48.220;14.480;2024-03-29T18:05:35;4.45;;;1.80;;
17890;SDS011;9071;48.220;14.480;2024-03-29T18:10:37;6.75;;;1.90;;
17890;SDS011;9071;48.220;14.480;2024-03-29T18:15:39;3.72;;;1.23;;
17890;SDS011;9071;48.220;14.480;2024-03-29T18:20:45;2.60;;;1.00;;
17890;SDS011;9071;48.220;14.480;2024-03-29T18:25:47;2.10;;;1.30;;
17890;SDS011;9071;48.220;14.480;2024-03-29T18:30:49;6.32;;;1.35;;
17890;SDS011;9071;48.220;14.480;2024-03-29T18:35:53;2.17;;;1.08;;
17890;SDS011;9071;48.220;14.480;2024-03-29T18:40:58;1.23;;;1.05;;
17890;SDS011;9071;48.220;14.480;2024-03-29T18:46:02;21.08;;;11.25;;
17890;SDS011;9071;48.220;14.480;2024-03-29T18:51:06;2.80;;;1.48;;
17890;SDS011;9071;48.220;14.480;2024-03-29T18:56:08;2.58;;;1.80;;
17890;SDS011;9071;48.220;14.480;2024-03-29T19:01:10;2.70;;;1.60;;
17890;SDS011;9071;48.220;14.480;2024-03-29T19:06:14;3.30;;;1.52;;
17890;SDS011;9071;48.220;14.480;2024-03-29T19:11:21;4.47;;;2.00;;
17890;SDS011;9071;48.220;14.480;2024-03-29T19:16:24;3.22;;;1.30;;
17890;SDS011;9071;48.220;14.480;2024-03-29T19:21:28;3.75;;;2.10;;
17890;SDS011;9071;48.220;14.480;2024-03-29T19:26:32;4.22;;;1.50;;
17890;SDS011;9071;48.220;14.480;2024-03-29T19:31:34;4.40;;;2.80;;
17890;SDS011;9071;48.220;14.480;2024-03-29T19:36:38;8.45;;;2.08;;
17890;SDS011;9071;48.220;14.480;2024-03-29T19:41:40;4.18;;;1.60;;
17890;SDS011;9071;48.220;14.480;2024-03-29T19:46:43;3.65;;;1.73;;
17890;SDS011;9071;48.220;14.480;2024-03-29T19:51:46;4.43;;;1.63;;
17890;SDS011;9071;48.220;14.480;2024-03-29T19:56:49;8.93;;;2.07;;
17890;SDS011;9071;48.220;14.480;2024-03-29T20:01:51;4.55;;;1.77;;
17890;SDS011;9071;48.220;14.480;2024-03-29T20:06:54;7.67;;;1.90;;
17890;SDS011;9071;48.220;14.480;2024-03-29T20:11:56;8.37;;;1.80;;
17890;SDS011;9071;48.220;14.480;2024-03-29T20:16:58;10.50;;;2.83;;
17890;SDS011;9071;48.220;14.480;2024-03-29T20:22:02;4.80;;;1.50;;
17890;SDS011;9071;48.220;14.480;2024-03-29T20:27:04;7.25;;;1.90;;
17890;SDS011;9071;48.220;14.480;2024-03-29T20:32:08;7.88;;;1.60;;
17890;SDS011;9071;48.220;14.480;2024-03-29T20:37:11;7.57;;;2.13;;
17890;SDS011;9071;48.220;14.480;2024-03-29T20:42:14;9.50;;;2.03;;
17890;SDS011;9071;48.220;14.480;2024-03-29T20:47:16;7.97;;;1.80;;
17890;SDS011;9071;48.220;14.480;2024-03-29T20:52:19;9.13;;;1.75;;
17890;SDS011;9071;48.220;14.480;2024-03-29T20:57:21;9.73;;;1.83;;
17890;SDS011;9071;48.220;14.480;2024-03-29T21:02:23;9.30;;;2.20;;
17890;SDS011;9071;48.220;14.480;2024-03-29T21:07:44;8.27;;;2.23;;
17890;SDS011;9071;48.220;14.480;2024-03-29T21:12:47;9.70;;;2.30;;
17890;SDS011;9071;48.220;14.480;2024-03-29T21:17:49;9.10;;;2.37;;
17890;SDS011;9071;48.220;14.480;2024-03-29T21:22:54;11.00;;;1.87;;
17890;SDS011;9071;48.220;14.480;2024-03-29T21:27:57;13.53;;;2.17;;
17890;SDS011;9071;48.220;14.480;2024-03-29T21:33:03;9.27;;;2.30;;
17890;SDS011;9071;48.220;14.480;2024-03-29T21:38:07;14.00;;;2.37;;
17890;SDS011;9071;48.220;14.480;2024-03-29T21:43:09;11.50;;;2.43;;
17890;SDS011;9071;48.220;14.480;2024-03-29T21:48:13;13.77;;;3.90;;
17890;SDS011;9071;48.220;14.480;2024-03-29T21:53:16;12.90;;;4.50;;
17890;SDS011;9071;48.220;14.480;2024-03-29T21:58:18;12.20;;;2.90;;
17890;SDS011;9071;48.220;14.480;2024-03-29T22:03:20;17.73;;;3.00;;
17890;SDS011;9071;48.220;14.480;2024-03-29T22:08:24;20.30;;;2.67;;
17890;SDS011;9071;48.220;14.480;2024-03-29T22:13:26;12.63;;;2.70;;
17890;SDS011;9071;48.220;14.480;2024-03-29T22:18:28;15.57;;;3.83;;
17890;SDS011;9071;48.220;14.480;2024-03-29T22:23:31;22.27;;;3.47;;
17890;SDS011;9071;48.220;14.480;2024-03-29T22:28:34;22.17;;;3.70;;
17890;SDS011;9071;48.220;14.480;2024-03-29T22:33:36;17.40;;;3.73;;
17890;SDS011;9071;48.220;14.480;2024-03-29T22:38:39;18.73;;;3.73;;
17890;SDS011;9071;48.220;14.480;2024-03-29T22:43:41;27.93;;;4.53;;
17890;SDS011;9071;48.220;14.480;2024-03-29T22:48:43;12.33;;;4.40;;
17890;SDS011;9071;48.220;14.480;2024-03-29T22:53:47;13.40;;;3.60;;
17890;SDS011;9071;48.220;14.480;2024-03-29T22:58:49;23.23;;;4.53;;
17890;SDS011;9071;48.220;14.480;2024-03-29T23:03:51;24.03;;;4.57;;
17890;SDS011;9071;48.220;14.480;2024-03-29T23:08:54;21.07;;;4.20;;
17890;SDS011;9071;48.220;14.480;2024-03-29T23:13:56;18.57;;;5.50;;
17890;SDS011;9071;48.220;14.480;2024-03-29T23:18:59;15.23;;;3.93;;
17890;SDS011;9071;48.220;14.480;2024-03-29T23:24:02;13.27;;;4.20;;
17890;SDS011;9071;48.220;14.480;2024-03-29T23:29:05;27.57;;;5.00;;
17890;SDS011;9071;48.220;14.480;2024-03-29T23:34:08;13.97;;;4.63;;
17890;SDS011;9071;48.220;14.480;2024-03-29T23:39:11;15.10;;;4.30;;
17890;SDS011;9071;48.220;14.480;2024-03-29T23:44:13;15.97;;;4.67;;
17890;SDS011;9071;48.220;14.480;2024-03-29T23:49:15;14.53;;;5.07;;
17890;SDS011;9071;48.220;14.480;2024-03-29T23:54:19;18.80;;;4.50;;
17890;SDS011;9071;48.220;14.480;2024-03-29T23:59:21;21.60;;;5.50;;
